sensor_id;sensor_type;location;lat;lon;timestamp;pressure;altitude;pressure_sealevel;temperature;humidity
12801;BME280;6464;42.494;27.470;2022-07-11T05:01:42;101378.38;;;21.89;100.00
12801;BME280;6464;42.494;27.470;2022-07-11T05:04:26;101351.34;;;21.76;100.00
12801;BME280;6464;42.494;27.470;2022-07-11T05:10:52;101391.19;;;22.00;100.00
12801;BME280;6464;42.494;27.470;2022-07-11T05:17:04;101395.50;;;22.20;100.00
12801;BME280;6464;42.494;27.470;2022-07-11T05:19:39;101325.09;;;21.81;100.00
12801;BME280;6464;42.494;27.470;2022-07-11T05:22:18;101224.28;;;21.11;100.00
12801;BME280;6464;42.494;27.470;2022-07-11T05:27:39;101339.75;;;21.92;100.00
12801;BME280;6464;42.494;27.470;2022-07-11T05:30:08;101373.03;;;22.05;100.00
12801;BME280;6464;42.494;27.470;2022-07-11T05:32:52;101401.41;;;22.26;100.00
12801;BME280;6464;42.494;27.470;2022-07-11T05:35:19;101352.09;;;22.12;100.00
12801;BME280;6464;42.494;27.470;2022-07-11T05:37:46;101373.41;;;22.30;100.00
12801;BME280;6464;42.494;27.470;2022-07-11T05:40:13;101420.63;;;22.50;100.00
12801;BME280;6464;42.494;27.470;2022-07-11T05:42:40;101382.84;;;22.38;100.00
12801;BME280;6464;42.494;27.470;2022-07-11T05:45:08;101394.19;;;22.58;100.00
12801;BME280;6464;42.494;27.470;2022-07-11T05:47:35;101449.97;;;23.01;100.00
12801;BME280;6464;42.494;27.470;2022-07-11T05:50:05;101389.16;;;22.68;100.00
12801;BME280;6464;42.494;27.470;2022-07-11T05:52:32;101403.88;;;22.93;100.00
12801;BME280;6464;42.494;27.470;2022-07-11T05:54:59;101469.34;;;23.38;100.00
12801;BME280;6464;42.494;27.470;2022-07-11T05:57:26;101402.34;;;23.03;100.00
12801;BME280;6464;42.494;27.470;2022-07-11T05:59:54;101466.13;;;23.61;100.00
12801;BME280;6464;42.494;27.470;2022-07-11T06:02:21;101458.91;;;23.62;100.00
12801;BME280;6464;42.494;27.470;2022-07-11T06:04:48;101484.63;;;23.81;100.00
12801;BME280;6464;42.494;27.470;2022-07-11T06:07:16;101433.97;;;23.58;100.00
12801;BME280;6464;42.494;27.470;2022-07-11T06:09:57;101460.19;;;23.70;100.00
12801;BME280;6464;42.494;27.470;2022-07-11T06:12:24;101429.72;;;23.40;100.00
12801;BME280;6464;42.494;27.470;2022-07-11T06:14:51;101471.94;;;23.83;100.00
12801;BME280;6464;42.494;27.470;2022-07-11T06:17:18;101475.59;;;23.82;100.00
12801;BME280;6464;42.494;27.470;2022-07-11T06:19:45;101495.59;;;24.07;100.00
12801;BME280;6464;42.494;27.470;2022-07-11T06:22:12;101458.09;;;23.75;100.00
12801;BME280;6464;42.494;27.470;2022-07-11T06:24:41;101417.22;;;23.39;100.00
12801;BME280;6464;42.494;27.470;2022-07-11T06:27:08;101413.34;;;23.14;100.00
12801;BME280;6464;42.494;27.470;2022-07-11T06:29:35;101421.75;;;23.38;100.00
12801;BME280;6464;42.494;27.470;2022-07-11T06:32:03;101370.44;;;23.11;100.00
12801;BME280;6464;42.494;27.470;2022-07-11T06:34:31;101476.84;;;23.77;100.00
12801;BME280;6464;42.494;27.470;2022-07-11T06:36:59;101481.47;;;23.75;100.00
12801;BME280;6464;42.494;27.470;2022-07-11T06:39:27;101455.78;;;23.69;100.00
12801;BME280;6464;42.494;27.470;2022-07-11T06:41:55;101466.94;;;23.77;100.00
12801;BME280;6464;42.494;27.470;2022-07-11T06:44:22;101430.53;;;23.56;100.00
12801;BME280;6464;42.494;27.470;2022-07-11T06:46:50;101438.88;;;23.51;100.00
12801;BME280;6464;42.494;27.470;2022-07-11T06:49:17;101477.81;;;23.76;100.00
12801;BME280;6464;42.494;27.470;2022-07-11T06:51:44;101491.69;;;23.84;100.00
12801;BME280;6464;42.494;27.470;2022-07-11T06:54:11;101490.78;;;23.69;100.00
12801;BME280;6464;42.494;27.470;2022-07-11T06:56:38;101421.88;;;23.21;100.00
12801;BME280;6464;42.494;27.470;2022-07-11T06:59:07;101499.25;;;23.77;100.00
12801;BME280;6464;42.494;27.470;2022-07-11T07:01:34;101507.16;;;23.95;100.00
12801;BME280;6464;42.494;27.470;2022-07-11T07:04:01;101464.22;;;23.77;100.00
12801;BME280;6464;42.494;27.470;2022-07-11T07:06:28;101515.16;;;23.96;100.00
12801;BME280;6464;42.494;27.470;2022-07-11T07:08:55;101519.41;;;24.15;100.00
12801;BME280;6464;42.494;27.470;2022-07-11T07:11:23;101521.63;;;24.36;100.00
12801;BME280;6464;42.494;27.470;2022-07-11T07:13:50;101503.78;;;24.34;100.00
12801;BME280;6464;42.494;27.470;2022-07-11T07:16:26;101500.41;;;23.88;100.00
12801;BME280;6464;42.494;27.470;2022-07-11T07:18:56;101479.84;;;24.01;100.00
12801;BME280;6464;42.494;27.470;2022-07-11T07:21:23;101457.06;;;23.62;100.00
12801;BME280;6464;42.494;27.470;2022-07-11T07:23:57;101534.69;;;24.28;100.00
12801;BME280;6464;42.494;27.470;2022-07-11T07:26:25;101549.25;;;24.54;100.00
12801;BME280;6464;42.494;27.470;2022-07-11T07:28:56;101526.94;;;24.38;100.00
12801;BME280;6464;42.494;27.470;2022-07-11T07:31:39;101483.28;;;24.17;100.00
12801;BME280;6464;42.494;27.470;2022-07-11T07:34:06;101487.63;;;24.20;100.00
12801;BME280;6464;42.494;27.470;2022-07-11T07:36:35;101488.31;;;24.38;100.00
12801;BME280;6464;42.494;27.470;2022-07-11T07:39:03;101538.66;;;24.51;100.00
12801;BME280;6464;42.494;27.470;2022-07-11T07:41:32;101511.78;;;24.35;100.00
12801;BME280;6464;42.494;27.470;2022-07-11T07:43:59;101448.25;;;24.03;100.00
12801;BME280;6464;42.494;27.470;2022-07-11T07:46:31;101505.53;;;24.49;100.00
12801;BME280;6464;42.494;27.470;2022-07-11T07:49:02;101533.19;;;24.80;100.00
12801;BME280;6464;42.494;27.470;2022-07-11T07:51:30;101487.38;;;24.66;100.00
12801;BME280;6464;42.494;27.470;2022-07-11T07:53:57;101558.94;;;24.85;100.00
12801;BME280;6464;42.494;27.470;2022-07-11T07:56:30;101483.81;;;24.65;100.00
12801;BME280;6464;42.494;27.470;2022-07-11T07:58:58;101518.66;;;24.82;100.00
12801;BME280;6464;42.494;27.470;2022-07-11T08:01:26;101553.88;;;25.08;100.00
12801;BME280;6464;42.494;27.470;2022-07-11T08:04:03;101490.97;;;24.66;100.00
12801;BME280;6464;42.494;27.470;2022-07-11T08:06:30;101530.81;;;25.17;100.00
12801;BME280;6464;42.494;27.470;2022-07-11T08:08:57;101550.31;;;25.07;100.00
12801;BME280;6464;42.494;27.470;2022-07-11T08:11:24;101549.25;;;25.10;100.00
12801;BME280;6464;42.494;27.470;2022-07-11T08:13:52;101506.56;;;24.61;100.00
12801;BME280;6464;42.494;27.470;2022-07-11T08:16:21;101472.84;;;24.68;100.00
12801;BME280;6464;42.494;27.470;2022-07-11T08:18:48;101574.25;;;25.26;100.00
12801;BME280;6464;42.494;27.470;2022-07-11T08:21:17;101506.72;;;25.13;100.00
12801;BME280;6464;42.494;27.470;2022-07-11T08:23:44;101515.47;;;25.17;100.00
12801;BME280;6464;42.494;27.470;2022-07-11T08:26:11;101535.88;;;25.48;100.00
12801;BME280;6464;42.494;27.470;2022-07-11T08:28:38;101580.88;;;25.75;100.00
12801;BME280;6464;42.494;27.470;2022-07-11T08:31:05;101575.25;;;25.65;100.00
12801;BME280;6464;42.494;27.470;2022-07-11T08:33:32;101524.81;;;25.26;100.00
12801;BME280;6464;42.494;27.470;2022-07-11T08:35:59;101576.47;;;25.34;100.00
12801;BME280;6464;42.494;27.470;2022-07-11T08:38:27;101521.78;;;25.30;100.00
12801;BME280;6464;42.494;27.470;2022-07-11T08:40:54;101576.25;;;25.77;100.00
12801;BME280;6464;42.494;27.470;2022-07-11T08:43:24;101515.47;;;25.57;100.00
12801;BME280;6464;42.494;27.470;2022-07-11T08:45:53;101536.09;;;25.98;100.00
12801;BME280;6464;42.494;27.470;2022-07-11T08:48:21;101574.56;;;26.14;100.00
12801;BME280;6464;42.494;27.470;2022-07-11T08:50:49;101527.63;;;25.77;100.00
12801;BME280;6464;42.494;27.470;2022-07-11T08:53:16;101535.94;;;25.86;100.00
12801;BME280;6464;42.494;27.470;2022-07-11T08:55:45;101566.91;;;26.08;100.00
12801;BME280;6464;42.494;27.470;2022-07-11T08:58:13;101586.13;;;26.29;100.00
12801;BME280;6464;42.494;27.470;2022-07-11T09:00:42;101522.50;;;25.59;100.00
12801;BME280;6464;42.494;27.470;2022-07-11T09:03:13;101518.63;;;25.63;100.00
12801;BME280;6464;42.494;27.470;2022-07-11T09:05:41;101585.69;;;25.84;100.00
12801;BME280;6464;42.494;27.470;2022-07-11T09:08:08;101513.84;;;25.54;100.00
12801;BME280;6464;42.494;27.470;2022-07-11T09:10:38;101574.66;;;26.25;100.00
12801;BME280;6464;42.494;27.470;2022-07-11T09:13:08;101535.13;;;26.11;100.00
12801;BME280;6464;42.494;27.470;2022-07-11T09:15:37;101520.38;;;26.28;100.00
12801;BME280;6464;42.494;27.470;2022-07-11T09:18:07;101571.97;;;27.13;100.00
12801;BME280;6464;42.494;27.470;2022-07-11T09:20:56;101573.41;;;27.65;100.00
12801;BME280;6464;42.494;27.470;2022-07-11T09:23:42;101587.94;;;27.99;100.00
12801;BME280;6464;42.494;27.470;2022-07-11T09:26:29;101591.59;;;27.76;100.00
12801;BME280;6464;42.494;27.470;2022-07-11T09:29:02;101583.50;;;27.87;100.00
12801;BME280;6464;42.494;27.470;2022-07-11T09:31:30;101589.13;;;27.73;100.00
12801;BME280;6464;42.494;27.470;2022-07-11T09:34:03;101605.13;;;28.11;100.00
12801;BME280;6464;42.494;27.470;2022-07-11T09:36:36;101549.38;;;28.18;100.00
12801;BME280;6464;42.494;27.470;2022-07-11T09:39:04;101605.16;;;28.67;100.00
12801;BME280;6464;42.494;27.470;2022-07-11T09:41:32;101632.25;;;29.78;100.00
12801;BME280;6464;42.494;27.470;2022-07-11T09:44:10;101645.31;;;32.06;100.00
12801;BME280;6464;42.494;27.470;2022-07-11T09:46:37;101640.84;;;33.26;100.00
12801;BME280;6464;42.494;27.470;2022-07-11T09:49:05;101610.78;;;34.16;100.00
12801;BME280;6464;42.494;27.470;2022-07-11T09:51:35;101689.94;;;35.64;100.00
12801;BME280;6464;42.494;27.470;2022-07-11T09:54:03;101690.66;;;36.07;100.00
12801;BME280;6464;42.494;27.470;2022-07-11T09:56:37;101674.50;;;35.87;100.00
12801;BME280;6464;42.494;27.470;2022-07-11T09:59:05;101707.13;;;36.39;100.00
12801;BME280;6464;42.494;27.470;2022-07-11T10:01:33;101717.78;;;37.53;100.00
12801;BME280;6464;42.494;27.470;2022-07-11T10:04:00;101730.03;;;39.25;100.00
12801;BME280;6464;42.494;27.470;2022-07-11T10:06:27;101732.88;;;39.89;100.00
12801;BME280;6464;42.494;27.470;2022-07-11T10:08:55;101700.63;;;39.53;100.00
12801;BME280;6464;42.494;27.470;2022-07-11T10:11:23;101736.72;;;40.87;100.00
12801;BME280;6464;42.494;27.470;2022-07-11T10:13:50;101717.13;;;39.83;100.00
12801;BME280;6464;42.494;27.470;2022-07-11T10:16:24;101710.22;;;37.78;100.00
12801;BME280;6464;42.494;27.470;2022-07-11T10:18:58;101692.09;;;37.61;100.00
12801;BME280;6464;42.494;27.470;2022-07-11T10:21:35;101619.69;;;33.56;100.00
12801;BME280;6464;42.494;27.470;2022-07-11T10:24:19;101588.06;;;30.88;100.00
12801;BME280;6464;42.494;27.470;2022-07-11T10:26:58;101613.44;;;31.48;100.00
12801;BME280;6464;42.494;27.470;2022-07-11T10:29:31;101506.94;;;31.69;100.00
12801;BME280;6464;42.494;27.470;2022-07-11T10:32:07;101599.34;;;32.11;100.00
12801;BME280;6464;42.494;27.470;2022-07-11T10:34:35;101541.47;;;29.69;100.00
12801;BME280;6464;42.494;27.470;2022-07-11T10:37:03;101569.44;;;29.49;100.00
12801;BME280;6464;42.494;27.470;2022-07-11T10:39:33;101579.00;;;29.00;100.00
12801;BME280;6464;42.494;27.470;2022-07-11T10:42:03;101589.41;;;29.70;100.00
12801;BME280;6464;42.494;27.470;2022-07-11T10:44:48;101605.78;;;30.42;100.00
12801;BME280;6464;42.494;27.470;2022-07-11T10:47:34;101620.00;;;32.14;100.00
12801;BME280;6464;42.494;27.470;2022-07-11T10:50:13;101599.72;;;30.90;100.00
12801;BME280;6464;42.494;27.470;2022-07-11T10:52:48;101582.38;;;30.30;100.00
12801;BME280;6464;42.494;27.470;2022-07-11T10:55:33;101582.06;;;32.40;100.00
12801;BME280;6464;42.494;27.470;2022-07-11T10:58:11;101645.03;;;34.72;100.00
12801;BME280;6464;42.494;27.470;2022-07-11T11:00:41;101670.34;;;35.00;100.00
12801;BME280;6464;42.494;27.470;2022-07-11T11:03:09;101684.44;;;35.72;100.00
12801;BME280;6464;42.494;27.470;2022-07-11T11:05:44;101677.91;;;37.49;100.00
12801;BME280;6464;42.494;27.470;2022-07-11T11:08:43;101719.28;;;38.10;100.00
12801;BME280;6464;42.494;27.470;2022-07-11T11:11:36;101682.88;;;37.77;100.00
12801;BME280;6464;42.494;27.470;2022-07-11T11:14:25;101652.09;;;36.80;100.00
12801;BME280;6464;42.494;27.470;2022-07-11T11:20:33;101511.44;;;33.80;100.00
12801;BME280;6464;42.494;27.470;2022-07-11T11:23:11;101634.53;;;35.76;100.00
12801;BME280;6464;42.494;27.470;2022-07-11T11:25:41;101589.81;;;32.99;100.00
12801;BME280;6464;42.494;27.470;2022-07-11T11:28:19;101458.59;;;30.75;100.00
12801;BME280;6464;42.494;27.470;2022-07-11T11:30:55;101392.88;;;28.96;100.00
12801;BME280;6464;42.494;27.470;2022-07-11T11:33:25;101477.53;;;29.01;100.00
12801;BME280;6464;42.494;27.470;2022-07-11T11:35:59;101433.09;;;29.43;100.00
12801;BME280;6464;42.494;27.470;2022-07-11T11:38:27;101514.63;;;29.23;100.00
12801;BME280;6464;42.494;27.470;2022-07-11T11:40:55;101513.28;;;28.29;100.00
12801;BME280;6464;42.494;27.470;2022-07-11T11:43:27;101371.88;;;27.55;100.00
12801;BME280;6464;42.494;27.470;2022-07-11T11:45:57;101414.50;;;27.64;100.00
12801;BME280;6464;42.494;27.470;2022-07-11T11:48:28;101517.34;;;28.68;100.00
12801;BME280;6464;42.494;27.470;2022-07-11T11:51:01;101458.38;;;29.76;100.00
12801;BME280;6464;42.494;27.470;2022-07-11T11:53:34;101444.97;;;29.84;100.00
12801;BME280;6464;42.494;27.470;2022-07-11T11:56:14;101526.50;;;30.66;100.00
12801;BME280;6464;42.494;27.470;2022-07-11T11:58:54;101514.31;;;29.05;100.00
12801;BME280;6464;42.494;27.470;2022-07-11T12:01:27;101484.56;;;28.26;100.00
12801;BME280;6464;42.494;27.470;2022-07-11T12:03:56;101375.94;;;27.60;100.00
12801;BME280;6464;42.494;27.470;2022-07-11T12:06:25;101472.22;;;28.11;100.00
12801;BME280;6464;42.494;27.470;2022-07-11T12:08:58;101515.84;;;28.08;100.00
12801;BME280;6464;42.494;27.470;2022-07-11T12:11:26;101514.38;;;29.26;100.00
12801;BME280;6464;42.494;27.470;2022-07-11T12:14:01;101478.63;;;30.14;100.00
12801;BME280;6464;42.494;27.470;2022-07-11T12:16:33;101453.03;;;29.65;100.00
12801;BME280;6464;42.494;27.470;2022-07-11T12:19:11;101566.28;;;30.88;100.00
12801;BME280;6464;42.494;27.470;2022-07-11T12:21:42;101487.19;;;30.90;100.00
12801;BME280;6464;42.494;27.470;2022-07-11T12:24:12;101586.44;;;33.33;100.00
12801;BME280;6464;42.494;27.470;2022-07-11T12:26:40;101604.00;;;35.79;100.00
12801;BME280;6464;42.494;27.470;2022-07-11T12:29:11;101671.81;;;37.00;100.00
12801;BME280;6464;42.494;27.470;2022-07-11T12:31:48;101560.38;;;32.66;100.00
12801;BME280;6464;42.494;27.470;2022-07-11T12:34:18;101545.31;;;30.39;100.00
12801;BME280;6464;42.494;27.470;2022-07-11T12:36:46;101552.81;;;30.96;100.00
12801;BME280;6464;42.494;27.470;2022-07-11T12:39:23;101449.66;;;30.43;100.00
12801;BME280;6464;42.494;27.470;2022-07-11T12:42:22;101457.63;;;31.24;100.00
12801;BME280;6464;42.494;27.470;2022-07-11T12:45:04;101622.97;;;34.04;100.00
12801;BME280;6464;42.494;27.470;2022-07-11T12:47:34;101517.97;;;31.97;100.00
12801;BME280;6464;42.494;27.470;2022-07-11T12:50:11;101433.94;;;32.56;100.00
12801;BME280;6464;42.494;27.470;2022-07-11T12:52:40;101610.72;;;35.69;100.00
12801;BME280;6464;42.494;27.470;2022-07-11T12:55:08;101666.03;;;38.18;100.00
12801;BME280;6464;42.494;27.470;2022-07-11T12:57:37;101702.31;;;39.91;100.00
12801;BME280;6464;42.494;27.470;2022-07-11T13:00:13;101689.53;;;40.95;100.00
12801;BME280;6464;42.494;27.470;2022-07-11T13:02:48;101600.44;;;37.07;100.00
12801;BME280;6464;42.494;27.470;2022-07-11T13:05:15;101543.75;;;35.29;100.00
12801;BME280;6464;42.494;27.470;2022-07-11T13:07:42;101589.88;;;34.75;100.00
12801;BME280;6464;42.494;27.470;2022-07-11T13:10:27;101554.66;;;34.20;100.00
12801;BME280;6464;42.494;27.470;2022-07-11T13:13:15;101576.00;;;34.42;100.00
12801;BME280;6464;42.494;27.470;2022-07-11T13:15:43;101550.19;;;33.93;100.00
12801;BME280;6464;42.494;27.470;2022-07-11T13:18:10;101551.91;;;33.50;100.00
12801;BME280;6464;42.494;27.470;2022-07-11T13:20:37;101548.22;;;33.59;100.00
12801;BME280;6464;42.494;27.470;2022-07-11T13:23:04;101569.56;;;33.56;100.00
12801;BME280;6464;42.494;27.470;2022-07-11T13:25:32;101474.09;;;31.61;100.00
12801;BME280;6464;42.494;27.470;2022-07-11T13:27:59;101443.44;;;30.91;100.00
12801;BME280;6464;42.494;27.470;2022-07-11T13:30:27;101516.09;;;30.10;100.00
12801;BME280;6464;42.494;27.470;2022-07-11T13:32:58;101481.81;;;28.60;100.00
12801;BME280;6464;42.494;27.470;2022-07-11T13:35:25;101485.25;;;28.62;100.00
12801;BME280;6464;42.494;27.470;2022-07-11T13:37:52;101484.91;;;28.22;100.00
12801;BME280;6464;42.494;27.470;2022-07-11T13:40:20;101463.34;;;27.86;100.00
12801;BME280;6464;42.494;27.470;2022-07-11T13:42:48;101467.28;;;28.27;100.00
12801;BME280;6464;42.494;27.470;2022-07-11T13:45:17;101500.38;;;29.30;100.00
12801;BME280;6464;42.494;27.470;2022-07-11T13:47:44;101522.53;;;30.09;100.00
12801;BME280;6464;42.494;27.470;2022-07-11T13:50:14;101555.59;;;31.84;100.00
12801;BME280;6464;42.494;27.470;2022-07-11T13:52:41;101584.59;;;33.52;100.00
12801;BME280;6464;42.494;27.470;2022-07-11T13:55:12;101474.41;;;31.10;100.00
12801;BME280;6464;42.494;27.470;2022-07-11T13:57:39;101518.19;;;29.44;100.00
12801;BME280;6464;42.494;27.470;2022-07-11T14:00:07;101533.28;;;30.32;100.00
12801;BME280;6464;42.494;27.470;2022-07-11T14:02:34;101560.97;;;30.87;100.00
12801;BME280;6464;42.494;27.470;2022-07-11T14:05:01;101580.41;;;31.81;100.00
12801;BME280;6464;42.494;27.470;2022-07-11T14:07:30;101564.06;;;31.52;100.00
12801;BME280;6464;42.494;27.470;2022-07-11T14:09:57;101518.09;;;30.79;100.00
12801;BME280;6464;42.494;27.470;2022-07-11T14:12:24;101467.63;;;29.53;100.00
12801;BME280;6464;42.494;27.470;2022-07-11T14:14:51;101524.97;;;28.97;100.00
12801;BME280;6464;42.494;27.470;2022-07-11T14:17:18;101514.50;;;28.69;100.00
12801;BME280;6464;42.494;27.470;2022-07-11T14:19:46;101488.50;;;28.00;100.00
12801;BME280;6464;42.494;27.470;2022-07-11T14:22:13;101490.38;;;27.53;100.00
12801;BME280;6464;42.494;27.470;2022-07-11T14:24:41;101450.75;;;27.74;100.00
12801;BME280;6464;42.494;27.470;2022-07-11T14:27:08;101427.63;;;27.81;100.00
12801;BME280;6464;42.494;27.470;2022-07-11T14:29:35;101510.94;;;28.24;100.00
12801;BME280;6464;42.494;27.470;2022-07-11T14:32:03;101502.06;;;28.22;100.00
12801;BME280;6464;42.494;27.470;2022-07-11T14:34:30;101481.03;;;27.68;100.00
12801;BME280;6464;42.494;27.470;2022-07-11T14:36:57;101527.72;;;28.63;100.00
12801;BME280;6464;42.494;27.470;2022-07-11T14:39:25;101542.44;;;30.10;100.00
12801;BME280;6464;42.494;27.470;2022-07-11T14:41:53;101565.16;;;31.01;100.00
12801;BME280;6464;42.494;27.470;2022-07-11T14:44:20;101573.25;;;31.70;100.00
12801;BME280;6464;42.494;27.470;2022-07-11T14:46:47;101539.38;;;30.24;100.00
12801;BME280;6464;42.494;27.470;2022-07-11T14:49:14;101544.38;;;29.77;100.00
12801;BME280;6464;42.494;27.470;2022-07-11T14:51:41;101482.41;;;29.18;100.00
12801;BME280;6464;42.494;27.470;2022-07-11T14:54:08;101500.09;;;28.24;100.00
12801;BME280;6464;42.494;27.470;2022-07-11T14:56:36;101442.16;;;27.91;100.00
12801;BME280;6464;42.494;27.470;2022-07-11T14:59:04;101483.78;;;27.79;100.00
12801;BME280;6464;42.494;27.470;2022-07-11T15:01:32;101493.59;;;28.81;100.00
12801;BME280;6464;42.494;27.470;2022-07-11T15:03:59;101527.06;;;29.25;100.00
12801;BME280;6464;42.494;27.470;2022-07-11T15:06:28;101525.50;;;29.55;100.00
12801;BME280;6464;42.494;27.470;2022-07-11T15:09:09;101458.28;;;29.04;100.00
12801;BME280;6464;42.494;27.470;2022-07-11T15:11:53;101508.88;;;28.39;100.00
12801;BME280;6464;42.494;27.470;2022-07-11T15:14:39;101511.16;;;27.99;100.00
12801;BME280;6464;42.494;27.470;2022-07-11T15:17:06;101425.50;;;27.16;100.00
12801;BME280;6464;42.494;27.470;2022-07-11T15:19:33;101528.94;;;28.25;100.00
12801;BME280;6464;42.494;27.470;2022-07-11T15:22:00;101553.94;;;28.85;100.00
12801;BME280;6464;42.494;27.470;2022-07-11T15:24:27;101569.25;;;30.45;100.00
12801;BME280;6464;42.494;27.470;2022-07-11T15:26:55;101538.31;;;29.53;100.00
12801;BME280;6464;42.494;27.470;2022-07-11T15:29:24;101522.66;;;28.25;100.00
12801;BME280;6464;42.494;27.470;2022-07-11T15:31:52;101500.94;;;27.56;100.00
12801;BME280;6464;42.494;27.470;2022-07-11T15:34:19;101493.78;;;27.44;100.00
12801;BME280;6464;42.494;27.470;2022-07-11T15:36:46;101481.00;;;27.22;100.00
12801;BME280;6464;42.494;27.470;2022-07-11T15:39:13;101514.38;;;27.81;100.00
12801;BME280;6464;42.494;27.470;2022-07-11T15:41:40;101508.31;;;27.42;100.00
12801;BME280;6464;42.494;27.470;2022-07-11T15:44:08;101522.28;;;28.07;100.00
12801;BME280;6464;42.494;27.470;2022-07-11T15:46:37;101542.25;;;28.62;100.00
12801;BME280;6464;42.494;27.470;2022-07-11T15:49:05;101549.28;;;28.76;100.00
12801;BME280;6464;42.494;27.470;2022-07-11T15:51:32;101538.06;;;28.24;100.00
12801;BME280;6464;42.494;27.470;2022-07-11T15:54:00;101548.38;;;28.86;100.00
12801;BME280;6464;42.494;27.470;2022-07-11T15:56:28;101535.22;;;28.26;100.00
12801;BME280;6464;42.494;27.470;2022-07-11T15:58:56;101501.53;;;27.37;100.00
12801;BME280;6464;42.494;27.470;2022-07-11T16:01:23;101495.59;;;26.84;100.00
12801;BME280;6464;42.494;27.470;2022-07-11T16:03:51;101462.78;;;26.39;100.00
12801;BME280;6464;42.494;27.470;2022-07-11T16:06:20;101488.25;;;26.36;100.00
12801;BME280;6464;42.494;27.470;2022-07-11T16:08:47;101498.72;;;26.54;100.00
12801;BME280;6464;42.494;27.470;2022-07-11T16:11:14;101472.00;;;26.36;100.00
12801;BME280;6464;42.494;27.470;2022-07-11T16:13:41;101481.72;;;26.64;100.00
12801;BME280;6464;42.494;27.470;2022-07-11T16:16:08;101455.41;;;26.17;100.00
12801;BME280;6464;42.494;27.470;2022-07-11T16:18:35;101479.28;;;26.23;100.00
12801;BME280;6464;42.494;27.470;2022-07-11T16:21:03;101446.75;;;26.61;100.00
12801;BME280;6464;42.494;27.470;2022-07-11T16:23:31;101502.13;;;26.69;100.00
12801;BME280;6464;42.494;27.470;2022-07-11T16:25:58;101478.63;;;26.20;100.00
12801;BME280;6464;42.494;27.470;2022-07-11T16:28:26;101445.31;;;26.19;100.00
12801;BME280;6464;42.494;27.470;2022-07-11T16:30:53;101505.09;;;26.53;100.00
12801;BME280;6464;42.494;27.470;2022-07-11T16:33:19;101485.94;;;26.56;100.00
12801;BME280;6464;42.494;27.470;2022-07-11T16:35:47;101483.63;;;26.13;100.00
12801;BME280;6464;42.494;27.470;2022-07-11T16:38:15;101488.91;;;26.27;100.00
12801;BME280;6464;42.494;27.470;2022-07-11T16:40:43;101498.97;;;26.00;100.00
12801;BME280;6464;42.494;27.470;2022-07-11T16:43:27;101495.97;;;25.79;100.00
12801;BME280;6464;42.494;27.470;2022-07-11T16:45:55;101487.75;;;25.80;100.00
12801;BME280;6464;42.494;27.470;2022-07-11T16:48:23;101500.72;;;25.75;100.00
12801;BME280;6464;42.494;27.470;2022-07-11T16:50:51;101529.38;;;25.91;100.00
12801;BME280;6464;42.494;27.470;2022-07-11T16:53:19;101529.13;;;25.68;100.00
12801;BME280;6464;42.494;27.470;2022-07-11T16:55:48;101517.75;;;25.63;100.00
12801;BME280;6464;42.494;27.470;2022-07-11T16:58:15;101506.88;;;25.37;100.00
12801;BME280;6464;42.494;27.470;2022-07-11T17:00:42;101506.09;;;25.10;100.00
12801;BME280;6464;42.494;27.470;2022-07-11T17:03:09;101514.88;;;25.26;100.00
12801;BME280;6464;42.494;27.470;2022-07-11T17:05:38;101448.00;;;24.90;100.00
12801;BME280;6464;42.494;27.470;2022-07-11T17:08:06;101499.28;;;25.17;100.00
12801;BME280;6464;42.494;27.470;2022-07-11T17:10:52;101429.13;;;24.63;100.00
12801;BME280;6464;42.494;27.470;2022-07-11T17:13:19;101527.09;;;25.05;100.00
12801;BME280;6464;42.494;27.470;2022-07-11T17:15:46;101512.78;;;24.90;100.00
12801;BME280;6464;42.494;27.470;2022-07-11T17:18:13;101519.09;;;24.89;100.00
12801;BME280;6464;42.494;27.470;2022-07-11T17:20:40;101524.22;;;24.94;100.00
12801;BME280;6464;42.494;27.470;2022-07-11T17:23:10;101523.47;;;24.92;100.00
12801;BME280;6464;42.494;27.470;2022-07-11T17:25:37;101534.88;;;24.68;100.00
12801;BME280;6464;42.494;27.470;2022-07-11T17:28:06;101489.66;;;24.45;100.00
12801;BME280;6464;42.494;27.470;2022-07-11T17:30:33;101535.63;;;24.70;100.00
12801;BME280;6464;42.494;27.470;2022-07-11T17:33:03;101463.75;;;24.28;100.00
12801;BME280;6464;42.494;27.470;2022-07-11T17:35:30;101555.31;;;24.58;100.00
12801;BME280;6464;42.494;27.470;2022-07-11T17:37:57;101550.13;;;24.55;100.00
12801;BME280;6464;42.494;27.470;2022-07-11T17:40:24;101545.78;;;24.52;100.00
12801;BME280;6464;42.494;27.470;2022-07-11T17:42:51;101546.06;;;24.33;100.00
12801;BME280;6464;42.494;27.470;2022-07-11T17:45:21;101474.16;;;23.91;100.00
12801;BME280;6464;42.494;27.470;2022-07-11T17:47:48;101555.47;;;24.26;100.00
12801;BME280;6464;42.494;27.470;2022-07-11T17:50:15;101554.16;;;24.33;100.00
12801;BME280;6464;42.494;27.470;2022-07-11T17:52:43;101530.47;;;24.10;100.00
12801;BME280;6464;42.494;27.470;2022-07-11T17:55:11;101509.00;;;23.94;100.00
12801;BME280;6464;42.494;27.470;2022-07-11T17:57:39;101491.19;;;23.92;100.00
12801;BME280;6464;42.494;27.470;2022-07-11T18:00:09;101560.63;;;24.45;100.00
12801;BME280;6464;42.494;27.470;2022-07-11T18:02:43;101526.41;;;24.17;100.00
12801;BME280;6464;42.494;27.470;2022-07-11T18:05:11;101558.59;;;24.49;100.00
12801;BME280;6464;42.494;27.470;2022-07-11T18:07:40;101564.38;;;24.43;100.00
12801;BME280;6464;42.494;27.470;2022-07-11T18:10:11;101578.22;;;24.51;100.00